Time;durP1;ratioP1;P1;durP2;ratioP2;P2;SDS_P1;SDS_P2;PMS_P1;PMS_P2;Temp;Humidity;BMP_temperature;BMP_pressure;BME280_temperature;BME280_humidity;BME280_pressure;Samples;Min_cycle;Max_cycle;Signal;HPM_P1;HPM_P2
2022/03/21 00:00:28;;;;;;;1.30;0.70;;;;;;;0.55;42.51;102112.06;4506916;31;33876;-70
2022/03/21 00:02:57;;;;;;;1.85;1.75;;;;;;;0.72;42.24;102119.53;4513472;31;34348;-70
2022/03/21 00:05:25;;;;;;;0.65;0.65;;;;;;;1.05;42.08;102109.69;4503350;31;34803;-69
2022/03/21 00:07:52;;;;;;;0.88;0.88;;;;;;;0.80;42.08;102109.06;4510832;31;34039;-70
2022/03/21 00:10:20;;;;;;;1.30;1.20;;;;;;;0.92;41.70;102119.72;4509524;31;33877;-71
2022/03/21 00:12:49;;;;;;;12.60;6.72;;;;;;;0.90;42.63;102114.50;4505162;31;33493;-71
2022/03/21 00:15:18;;;;;;;11.75;7.53;;;;;;;1.23;40.92;102109.97;4514057;31;33866;-71
2022/03/21 00:17:46;;;;;;;2.10;1.20;;;;;;;1.11;41.24;102113.69;4505480;31;34301;-71
2022/03/21 00:20:15;;;;;;;12.98;7.62;;;;;;;0.99;41.89;102112.88;4508342;31;33580;-71
2022/03/21 00:22:43;;;;;;;13.02;7.53;;;;;;;0.00;42.83;102114.69;4510841;31;33528;-70
2022/03/21 00:25:10;;;;;;;0.57;0.57;;;;;;;0.38;42.12;102111.59;4503237;31;34847;-71
2022/03/21 00:27:39;;;;;;;0.77;0.77;;;;;;;1.05;41.98;102112.38;4512283;31;34151;-71
2022/03/21 00:30:09;;;;;;;1.10;1.05;;;;;;;1.21;41.24;102109.28;4508218;31;33894;-71
2022/03/21 00:32:37;;;;;;;16.85;7.55;;;;;;;0.76;41.68;102117.47;4505757;31;34308;-71
2022/03/21 00:35:14;;;;;;;13.65;7.37;;;;;;;0.70;42.59;102104.63;4513573;31;33797;-71
2022/03/21 00:37:44;;;;;;;0.55;0.50;;;;;;;1.22;40.19;102106.44;4505194;31;34172;-71
2022/03/21 00:40:12;;;;;;;11.07;6.95;;;;;;;1.21;40.35;102103.94;4508804;31;34138;-70
2022/03/21 00:42:41;;;;;;;10.25;5.87;;;;;;;0.39;42.18;102101.78;4510307;31;33509;-71
2022/03/21 00:45:12;;;;;;;0.60;0.60;;;;;;;0.60;42.94;102108.03;4502929;31;34816;-70
2022/03/21 00:47:39;;;;;;;5.57;3.70;;;;;;;1.09;41.00;102103.12;4512092;31;34102;-70
2022/03/21 00:50:08;;;;;;;2.53;2.30;;;;;;;1.02;41.30;102094.75;4508083;31;33813;-71
2022/03/21 00:52:47;;;;;;;9.77;6.25;;;;;;;1.11;41.04;102105.66;4504418;31;33535;-71
2022/03/21 00:55:16;;;;;;;12.45;6.62;;;;;;;1.28;39.98;102099.75;4508004;31;34436;-69
2022/03/21 00:57:44;;;;;;;7.50;4.35;;;;;;;0.73;42.09;102093.66;4505128;31;35012;-71
2022/03/21 01:00:13;;;;;;;0.75;0.75;;;;;;;0.96;41.70;102097.09;4508388;31;34594;-70
2022/03/21 01:02:41;;;;;;;3.50;2.05;;;;;;;0.53;42.31;102097.97;4511464;31;33085;-71
2022/03/21 01:05:10;;;;;;;7.57;4.60;;;;;;;0.53;42.42;102090.81;4502569;31;34654;-70
2022/03/21 01:07:39;;;;;;;10.13;6.40;;;;;;;0.83;41.96;102097.28;4512029;31;35038;-72
2022/03/21 01:10:08;;;;;;;0.75;0.75;;;;;;;1.26;40.33;102095.50;4507839;31;34635;-70
2022/03/21 01:12:37;;;;;;;10.82;6.45;;;;;;;0.89;41.38;102088.75;4505068;31;33535;-69
2022/03/21 01:15:07;;;;;;;0.70;0.70;;;;;;;0.67;42.48;102100.38;4513186;31;34066;-69
2022/03/21 01:17:35;;;;;;;0.60;0.60;;;;;;;0.54;43.14;102088.97;4504103;31;34061;-71
2022/03/21 01:20:04;;;;;;;1.23;1.15;;;;;;;0.76;42.37;102088.91;4508808;31;34803;-70
2022/03/21 01:22:31;;;;;;;12.18;6.60;;;;;;;0.88;42.27;102092.38;4510198;31;33668;-70
2022/03/21 01:24:58;;;;;;;0.82;0.82;;;;;;;1.15;41.94;102088.41;4502886;31;34757;-70
2022/03/21 01:27:26;;;;;;;13.77;6.62;;;;;;;1.06;41.25;102091.81;4503002;31;34793;-71
2022/03/21 01:29:53;;;;;;;5.97;3.22;;;;;;;0.33;44.88;102092.44;4510645;31;34692;-69
2022/03/21 01:32:21;;;;;;;5.32;3.30;;;;;;;0.47;43.27;102087.78;4516352;31;33505;-68
2022/03/21 01:34:49;;;;;;;13.20;6.65;;;;;;;0.74;41.48;102088.19;4505428;31;34599;-70
2022/03/21 01:37:16;;;;;;;9.07;4.60;;;;;;;0.43;42.80;102089.84;4513963;31;35071;-68
2022/03/21 01:39:43;;;;;;;11.07;6.35;;;;;;;0.41;44.15;102086.44;4506713;31;34570;-70
2022/03/21 01:42:11;;;;;;;1.17;1.02;;;;;;;0.42;43.10;102079.31;4510163;31;33596;-70
2022/03/21 01:44:38;;;;;;;7.75;4.80;;;;;;;0.36;41.87;102088.66;4512593;31;33709;-70
2022/03/21 01:47:06;;;;;;;0.50;0.50;;;;;;;-0.35;43.43;102088.94;4504318;31;34161;-68
2022/03/21 01:49:33;;;;;;;0.85;0.82;;;;;;;0.07;42.86;102086.53;4513965;31;33669;-71
2022/03/21 01:52:01;;;;;;;1.15;0.73;;;;;;;0.31;42.38;102086.38;4508625;31;34117;-68
2022/03/21 01:57:15;;;;;;;10.35;5.95;;;;;;;0.50;41.66;102071.53;4514583;31;34232;-71
2022/03/21 01:59:46;;;;;;;0.77;0.77;;;;;;;-0.02;44.79;102074.75;4505399;31;34003;-71
2022/03/21 02:02:13;;;;;;;0.80;0.77;;;;;;;0.27;43.26;102082.25;4508128;31;33300;-70
2022/03/21 02:04:42;;;;;;;9.38;6.05;;;;;;;0.01;43.01;102075.50;4515372;31;34677;-70
2022/03/21 02:07:10;;;;;;;0.70;0.70;;;;;;;-0.10;44.22;102076.34;4504030;31;34149;-70
2022/03/21 02:09:38;;;;;;;10.60;5.82;;;;;;;0.29;42.83;102077.63;4513631;31;34863;-71
2022/03/21 02:12:06;;;;;;;6.68;4.60;;;;;;;0.01;44.44;102075.50;4508833;31;33585;-69
2022/03/21 02:14:39;;;;;;;0.52;0.52;;;;;;;0.04;44.79;102069.91;4506797;31;33659;-71
2022/03/21 02:17:10;;;;;;;12.43;5.93;;;;;;;0.01;44.39;102068.31;4514618;31;33947;-68
2022/03/21 02:19:39;;;;;;;9.55;5.50;;;;;;;-0.13;45.59;102061.44;4505965;31;33693;-70
2022/03/21 02:22:27;;;;;;;8.50;4.78;;;;;;;0.02;45.72;102070.00;4509014;31;33161;-68
2022/03/21 02:25:18;;;;;;;7.12;3.85;;;;;;;0.32;42.82;102065.84;4512925;31;34018;-70
2022/03/21 02:27:47;;;;;;;10.40;5.62;;;;;;;0.31;42.96;102074.84;4506647;31;33996;-70
2022/03/21 02:30:15;;;;;;;1.12;0.88;;;;;;;-0.52;46.16;102063.59;4507884;31;33802;-70
2022/03/21 02:32:42;;;;;;;13.30;7.05;;;;;;;-0.38;45.82;102061.66;4511649;31;34058;-70
2022/03/21 02:35:11;;;;;;;9.80;5.15;;;;;;;-0.25;45.96;102067.72;4502696;31;34005;-70
2022/03/21 02:37:39;;;;;;;0.95;0.70;;;;;;;-0.22;44.95;102062.12;4512794;31;33990;-70
2022/03/21 02:40:08;;;;;;;0.73;0.73;;;;;;;-0.41;44.78;102068.09;4509262;31;34433;-71
2022/03/21 02:42:36;;;;;;;0.60;0.60;;;;;;;-0.21;44.13;102061.19;4505679;31;32946;-69
2022/03/21 02:45:06;;;;;;;0.60;0.60;;;;;;;0.22;43.66;102062.22;4515346;31;33513;-69
2022/03/21 02:47:34;;;;;;;11.73;6.75;;;;;;;0.12;43.11;102062.97;4505050;31;34169;-71
2022/03/21 02:50:03;;;;;;;0.82;0.82;;;;;;;-0.22;43.28;102059.47;4510317;31;34669;-69
2022/03/21 02:52:31;;;;;;;0.80;0.80;;;;;;;-0.39;44.92;102060.81;4511179;31;33638;-71
2022/03/21 02:54:58;;;;;;;10.07;5.87;;;;;;;-0.02;43.08;102056.09;4505578;31;34150;-68
2022/03/21 02:57:31;;;;;;;9.30;5.82;;;;;;;-0.09;44.39;102054.84;4503991;31;33758;-69
2022/03/21 03:00:01;;;;;;;2.78;2.15;;;;;;;-0.25;43.22;102057.06;4510348;31;35031;-71
2022/03/21 03:02:28;;;;;;;1.05;1.05;;;;;;;-0.78;45.03;102052.25;4509733;31;34322;-69
2022/03/21 03:04:56;;;;;;;11.77;6.50;;;;;;;-0.55;45.54;102054.97;4504171;31;34838;-71
2022/03/21 03:07:24;;;;;;;1.35;1.17;;;;;;;-0.87;47.50;102056.47;4503687;31;35348;-71
2022/03/21 03:09:51;;;;;;;4.85;2.85;;;;;;;-0.22;45.89;102060.34;4511593;31;34057;-69
2022/03/21 03:12:19;;;;;;;2.00;1.80;;;;;;;-0.45;45.56;102059.47;4510032;31;33472;-69
2022/03/21 03:14:46;;;;;;;0.73;0.73;;;;;;;-0.09;44.25;102057.53;4505010;31;33714;-68
2022/03/21 03:17:14;;;;;;;0.60;0.60;;;;;;;-0.21;44.50;102048.69;4513933;31;34238;-69
2022/03/21 03:19:41;;;;;;;0.50;0.50;;;;;;;-0.12;44.92;102046.28;4505877;31;34002;-70
2022/03/21 03:22:09;;;;;;;12.20;6.32;;;;;;;-0.57;45.89;102056.91;4509304;31;33151;-68
2022/03/21 03:24:38;;;;;;;6.03;3.62;;;;;;;-1.55;47.91;102055.41;4510665;31;34847;-72
2022/03/21 03:27:06;;;;;;;0.52;0.52;;;;;;;-1.34;47.92;102057.41;4502398;31;35042;-69
2022/03/21 03:29:33;;;;;;;0.50;0.50;;;;;;;-1.12;47.41;102057.53;4512045;31;34006;-71
2022/03/21 03:32:03;;;;;;;0.43;0.43;;;;;;;-0.91;47.01;102059.50;4517012;31;34232;-68
2022/03/21 03:34:32;;;;;;;11.60;6.37;;;;;;;-1.09;47.54;102059.94;4505332;31;34804;-71
2022/03/21 03:36:59;;;;;;;7.78;4.22;;;;;;;-0.46;46.26;102063.09;4516423;31;35175;-70
2022/03/21 03:39:28;;;;;;;0.73;0.73;;;;;;;-1.01;47.74;102071.84;4504009;31;33874;-70
2022/03/21 03:41:55;;;;;;;5.80;3.03;;;;;;;-1.14;47.90;102069.25;4510398;31;34133;-68
2022/03/21 03:44:25;;;;;;;0.77;0.75;;;;;;;-0.82;46.96;102064.16;4510119;31;34678;-70
2022/03/21 03:46:52;;;;;;;10.80;6.45;;;;;;;-1.18;48.31;102062.47;4504425;31;33963;-68
2022/03/21 03:49:19;;;;;;;0.60;0.60;;;;;;;-0.91;46.61;102065.69;4513930;31;34204;-72
2022/03/21 03:51:47;;;;;;;0.60;0.60;;;;;;;-1.28;47.79;102065.78;4506216;31;34469;-68
2022/03/21 03:54:15;;;;;;;6.80;3.60;;;;;;;-1.29;47.74;102069.44;4508289;31;33958;-69
2022/03/21 03:56:42;;;;;;;1.55;1.25;;;;;;;-0.97;46.99;102071.50;4510428;31;33904;-71
2022/03/21 03:59:10;;;;;;;1.30;0.77;;;;;;;-0.88;47.48;102075.28;4503586;31;33940;-69
2022/03/21 04:01:38;;;;;;;11.90;6.43;;;;;;;-0.77;45.96;102075.31;4512622;31;33218;-71
2022/03/21 04:04:06;;;;;;;2.75;1.62;;;;;;;-1.11;47.67;102072.53;4507910;31;33706;-69
2022/03/21 04:06:33;;;;;;;6.75;4.12;;;;;;;-1.11;47.13;102077.00;4506101;31;34937;-73
2022/03/21 04:09:01;;;;;;;0.50;0.50;;;;;;;-0.79;46.71;102073.72;4512476;31;34464;-74
2022/03/21 04:11:28;;;;;;;0.82;0.82;;;;;;;-1.52;48.54;102079.09;4502864;31;34317;-71
2022/03/21 04:13:56;;;;;;;0.55;0.55;;;;;;;-1.56;49.02;102074.97;4510262;31;34657;-69
2022/03/21 04:16:23;;;;;;;0.68;0.68;;;;;;;-2.35;50.87;102070.91;4509970;31;34906;-72
2022/03/21 04:18:53;;;;;;;1.48;1.25;;;;;;;-1.99;50.33;102072.75;4503723;31;34050;-72
2022/03/21 04:21:26;;;;;;;1.58;1.48;;;;;;;-1.76;49.13;102072.94;4503474;31;33492;-68
2022/03/21 04:23:56;;;;;;;0.55;0.50;;;;;;;-2.63;50.54;102079.97;4510449;31;33987;-68
2022/03/21 04:26:24;;;;;;;0.50;0.50;;;;;;;-2.57;51.48;102079.50;4509824;31;34931;-67
2022/03/21 04:28:51;;;;;;;0.73;0.73;;;;;;;-2.48;52.17;102082.41;4504441;31;33848;-70
2022/03/21 04:31:19;;;;;;;0.60;0.60;;;;;;;-1.96;50.64;102072.56;4513394;31;33430;-68
2022/03/21 04:33:46;;;;;;;0.50;0.50;;;;;;;-1.76;50.44;102081.75;4505822;31;33972;-68
2022/03/21 04:36:14;;;;;;;8.07;4.68;;;;;;;-1.64;49.31;102082.69;4508036;31;33891;-71
2022/03/21 04:38:42;;;;;;;1.33;1.23;;;;;;;-2.45;51.41;102080.50;4511751;31;33811;-68
2022/03/21 04:41:10;;;;;;;0.60;0.60;;;;;;;-1.47;49.47;102092.09;4503272;31;33515;-69
2022/03/21 04:43:37;;;;;;;0.57;0.57;;;;;;;-1.69;50.84;102084.81;4512007;31;33703;-68
2022/03/21 04:46:05;;;;;;;0.60;0.60;;;;;;;-1.41;49.88;102083.66;4507473;31;34242;-68
2022/03/21 04:48:33;;;;;;;0.65;0.65;;;;;;;-1.84;51.06;102083.28;4505957;31;34746;-71
2022/03/21 04:51:00;;;;;;;0.60;0.60;;;;;;;-2.28;52.27;102083.66;4513615;31;33315;-70
2022/03/21 04:53:28;;;;;;;5.45;3.30;;;;;;;-2.82;54.07;102089.16;4503460;31;33583;-69
2022/03/21 04:55:55;;;;;;;1.50;1.25;;;;;;;-2.16;52.87;102092.59;4510101;31;34176;-69
2022/03/21 04:58:23;;;;;;;2.42;2.00;;;;;;;-1.61;51.61;102093.09;4509773;31;33814;-67
2022/03/21 05:00:52;;;;;;;0.77;0.77;;;;;;;-1.50;51.25;102093.16;4503644;31;34222;-67
2022/03/21 05:03:22;;;;;;;3.78;2.37;;;;;;;-1.70;50.62;102099.09;4513685;31;33855;-68
2022/03/21 05:05:50;;;;;;;0.55;0.55;;;;;;;-1.35;50.09;102093.84;4505914;31;34901;-70
2022/03/21 05:08:17;;;;;;;0.60;0.60;;;;;;;-1.21;50.04;102095.47;4506126;31;34699;-68
2022/03/21 05:10:45;;;;;;;0.50;0.50;;;;;;;-1.16;49.42;102097.81;4512153;31;33078;-72
2022/03/21 05:13:12;;;;;;;0.60;0.60;;;;;;;-1.18;49.83;102095.28;4502760;31;34896;-67
2022/03/21 05:15:40;;;;;;;0.82;0.82;;;;;;;-0.98;50.23;102103.59;4511319;31;34864;-67
2022/03/21 05:18:07;;;;;;;0.62;0.62;;;;;;;-1.11;49.55;102109.81;4507806;31;33936;-67
2022/03/21 05:20:35;;;;;;;0.40;0.40;;;;;;;-0.77;49.43;102095.78;4505402;31;34177;-68
2022/03/21 05:31:20;;;;;;;0.95;0.75;;;;;;;-0.49;47.46;102103.34;4511370;31;34323;-74
2022/03/21 05:36:34;;;;;;;0.50;0.50;;;;;;;-1.43;49.05;102109.53;4514317;31;33829;-70
2022/03/21 05:39:02;;;;;;;0.40;0.40;;;;;;;-0.84;48.26;102114.91;4501144;31;33725;-71
2022/03/21 05:41:30;;;;;;;1.85;1.75;;;;;;;-0.91;48.13;102118.97;4511119;31;33345;-68
2022/03/21 05:43:57;;;;;;;0.75;0.60;;;;;;;-0.87;48.50;102115.13;4503253;31;34012;-67
2022/03/21 05:46:26;;;;;;;0.60;0.60;;;;;;;-0.05;48.18;102117.69;4505008;31;34912;-64
2022/03/21 05:48:58;;;;;;;12.82;6.62;;;;;;;0.90;46.02;102124.34;4510672;31;34876;-64
2022/03/21 05:51:31;;;;;;;1.37;1.27;;;;;;;2.08;43.69;102118.78;4501311;31;33489;-65
2022/03/21 05:54:10;;;;;;;15.23;8.40;;;;;;;3.28;41.03;102119.50;4508087;31;34061;-65
2022/03/21 05:56:40;;;;;;;14.32;8.82;;;;;;;4.09;39.04;102110.97;4509255;31;34620;-65
2022/03/21 06:01:54;;;;;;;15.88;9.25;;;;;;;6.06;35.12;102116.28;4507966;31;34262;-65
2022/03/21 06:04:23;;;;;;;16.12;10.65;;;;;;;6.89;32.94;102114.69;4507167;31;33995;-65
2022/03/21 06:06:51;;;;;;;26.33;13.38;;;;;;;7.33;32.93;102114.41;4501978;31;34774;-67
2022/03/21 06:09:18;;;;;;;22.75;12.50;;;;;;;7.40;32.09;102123.50;4510669;31;34697;-67
2022/03/21 06:11:48;;;;;;;24.10;13.38;;;;;;;8.22;31.68;102120.63;4507224;31;33338;-65
2022/03/21 06:14:18;;;;;;;22.85;13.57;;;;;;;8.96;29.68;102118.44;4505604;31;33703;-66
2022/03/21 06:16:47;;;;;;;23.58;13.57;;;;;;;9.02;28.97;102116.84;4509432;31;34310;-65
2022/03/21 06:19:15;;;;;;;23.55;13.88;;;;;;;10.24;28.48;102120.25;4513551;31;34054;-62
2022/03/21 06:21:42;;;;;;;21.15;13.75;;;;;;;9.85;28.86;102125.97;4505310;31;34669;-65
2022/03/21 06:24:13;;;;;;;20.00;12.10;;;;;;;9.73;27.68;102125.56;4507980;31;34696;-65
2022/03/21 06:26:41;;;;;;;19.87;10.88;;;;;;;10.10;26.13;102125.69;4511671;31;33914;-62
2022/03/21 06:29:09;;;;;;;16.37;10.55;;;;;;;11.14;25.33;102131.72;4502566;31;33763;-63
2022/03/21 06:31:37;;;;;;;17.52;9.57;;;;;;;11.77;25.33;102131.87;4511473;31;33923;-65
2022/03/21 06:34:04;;;;;;;16.58;10.07;;;;;;;11.78;24.96;102130.00;4512721;31;34859;-64
2022/03/21 06:36:32;;;;;;;14.55;8.60;;;;;;;11.44;26.73;102132.44;4514100;31;34291;-62
2022/03/21 06:38:59;;;;;;;15.23;8.32;;;;;;;11.63;23.36;102128.19;4512598;31;34658;-64
2022/03/21 06:41:27;;;;;;;16.92;9.90;;;;;;;12.41;24.02;102128.06;4514538;31;33306;-63
2022/03/21 06:43:55;;;;;;;14.55;9.05;;;;;;;12.28;21.72;102126.13;4511578;31;34053;-65
2022/03/21 06:46:22;;;;;;;16.30;9.05;;;;;;;12.11;22.80;102132.94;4515656;31;35165;-64
2022/03/21 06:48:50;;;;;;;15.27;9.07;;;;;;;11.49;22.35;102131.87;4510928;31;33917;-65
2022/03/21 06:51:18;;;;;;;14.75;8.93;;;;;;;10.96;22.84;102126.75;4513104;31;34403;-62
2022/03/21 06:53:45;;;;;;;13.85;8.32;;;;;;;11.44;22.59;102139.75;4510943;31;34536;-63
2022/03/21 06:56:12;;;;;;;13.82;8.27;;;;;;;10.99;22.72;102139.09;4511111;31;34316;-62
2022/03/21 06:58:40;;;;;;;14.98;8.32;;;;;;;11.55;21.27;102132.94;4514690;31;32471;-63
2022/03/21 07:01:08;;;;;;;13.82;8.27;;;;;;;11.12;21.97;102141.94;4512180;31;33165;-63
2022/03/21 07:03:36;;;;;;;15.60;8.70;;;;;;;11.43;22.10;102146.25;4512865;31;34033;-63
2022/03/21 07:06:04;;;;;;;15.43;8.50;;;;;;;12.23;21.92;102142.22;4514728;31;34298;-65
2022/03/21 07:08:31;;;;;;;14.05;8.35;;;;;;;11.85;20.86;102144.47;4515495;31;34565;-64
2022/03/21 07:10:59;;;;;;;14.55;8.77;;;;;;;10.01;23.45;102147.47;4509229;31;33711;-67
2022/03/21 07:13:30;;;;;;;12.63;8.45;;;;;;;10.70;22.90;102146.31;4511796;31;34950;-68
2022/03/21 07:15:57;;;;;;;15.90;9.80;;;;;;;10.23;22.87;102145.69;4511806;31;35026;-69
2022/03/21 07:18:25;;;;;;;13.93;9.05;;;;;;;9.45;23.73;102150.53;4501626;31;33652;-70
2022/03/21 07:20:53;;;;;;;14.90;8.63;;;;;;;9.37;24.61;102149.75;4509919;31;33380;-69
2022/03/21 07:23:20;;;;;;;15.32;8.98;;;;;;;9.77;23.75;102143.13;4506531;31;34079;-69
2022/03/21 07:25:49;;;;;;;14.40;8.95;;;;;;;10.40;23.33;102149.06;4507262;31;34249;-70
2022/03/21 07:28:16;;;;;;;15.85;9.63;;;;;;;10.64;23.16;102152.50;4515024;31;33723;-69
2022/03/21 07:30:44;;;;;;;15.35;8.57;;;;;;;10.58;22.94;102153.25;4515053;31;33123;-69
2022/03/21 07:33:12;;;;;;;14.55;8.50;;;;;;;9.70;23.18;102150.34;4503345;31;34732;-69
2022/03/21 07:35:41;;;;;;;17.35;9.45;;;;;;;9.28;24.59;102148.97;4511861;31;33978;-69
2022/03/21 07:38:09;;;;;;;14.48;9.05;;;;;;;9.33;24.56;102154.72;4514651;31;33408;-69
2022/03/21 07:40:36;;;;;;;13.45;8.57;;;;;;;9.18;24.10;102146.53;4506305;31;33865;-69
2022/03/21 07:43:04;;;;;;;14.18;9.43;;;;;;;9.31;24.14;102155.91;4513719;31;33971;-64
2022/03/21 07:48:18;;;;;;;15.95;8.93;;;;;;;9.26;24.41;102159.16;4508666;31;34001;-65
2022/03/21 07:50:45;;;;;;;15.38;9.93;;;;;;;8.89;24.85;102154.50;4504576;31;33040;-67
2022/03/21 07:53:12;;;;;;;15.88;9.20;;;;;;;9.27;24.26;102151.91;4516393;31;34017;-63
2022/03/21 07:55:40;;;;;;;15.07;9.25;;;;;;;9.12;24.34;102159.97;4508362;31;34295;-65
2022/03/21 07:58:08;;;;;;;15.80;9.50;;;;;;;9.10;24.65;102151.16;4507752;31;33947;-64
2022/03/21 08:00:35;;;;;;;14.77;8.25;;;;;;;8.97;25.26;102154.47;4510918;31;33820;-64
2022/03/21 08:03:09;;;;;;;17.67;9.85;;;;;;;9.40;24.87;102150.25;4515801;31;33892;-64
2022/03/21 08:05:37;;;;;;;15.40;8.77;;;;;;;8.54;25.23;102156.72;4514104;31;34143;-65
2022/03/21 08:08:05;;;;;;;14.82;9.07;;;;;;;9.08;24.67;102155.91;4515348;31;34492;-67
2022/03/21 08:10:32;;;;;;;15.70;9.40;;;;;;;8.74;25.59;102157.12;4516254;31;33349;-64
2022/03/21 08:13:00;;;;;;;14.65;9.13;;;;;;;9.54;25.23;102154.00;4512114;31;33487;-67
2022/03/21 08:15:28;;;;;;;13.15;9.32;;;;;;;9.63;24.17;102158.34;4514721;31;35146;-64
2022/03/21 08:17:57;;;;;;;14.93;8.10;;;;;;;9.98;23.89;102147.84;4513280;31;33689;-66
2022/03/21 08:20:33;;;;;;;16.62;9.95;;;;;;;10.68;23.09;102157.34;4510837;31;33478;-65
2022/03/21 08:23:02;;;;;;;15.80;9.77;;;;;;;10.28;23.10;102147.84;4514452;31;34785;-66
2022/03/21 08:25:30;;;;;;;16.62;10.43;;;;;;;10.00;23.50;102153.91;4503457;31;33971;-65
2022/03/21 08:27:58;;;;;;;14.52;10.05;;;;;;;9.79;23.77;102151.09;4510487;31;34744;-66
2022/03/21 08:30:27;;;;;;;16.55;9.95;;;;;;;9.81;23.76;102151.75;4510226;31;33578;-64
2022/03/21 08:32:54;;;;;;;18.48;10.25;;;;;;;10.22;23.89;102148.59;4505427;31;34010;-67
2022/03/21 08:35:22;;;;;;;17.23;9.95;;;;;;;10.96;23.06;102144.94;4516150;31;35085;-64
2022/03/21 08:37:50;;;;;;;16.98;10.32;;;;;;;9.97;23.95;102140.72;4510541;31;33684;-64
2022/03/21 08:40:17;;;;;;;14.55;9.57;;;;;;;9.53;24.72;102143.38;4508837;31;33601;-64
2022/03/21 08:42:46;;;;;;;15.80;9.40;;;;;;;9.99;23.87;102140.53;4515019;31;34525;-64
2022/03/21 08:45:15;;;;;;;15.82;9.70;;;;;;;10.59;23.67;102144.94;4514024;31;34373;-64
2022/03/21 08:47:42;;;;;;;15.88;9.40;;;;;;;10.63;23.20;102142.69;4503653;31;34148;-66
2022/03/21 08:50:11;;;;;;;15.90;9.65;;;;;;;10.80;23.35;102129.72;4515862;31;33721;-64
2022/03/21 08:52:39;;;;;;;18.10;9.45;;;;;;;10.85;23.40;102132.69;4514714;31;33804;-64
2022/03/21 08:55:08;;;;;;;18.45;9.38;;;;;;;11.38;22.95;102133.25;4516198;31;34202;-64
2022/03/21 08:57:35;;;;;;;15.85;9.35;;;;;;;10.41;23.48;102134.50;4511526;31;34035;-66
2022/03/21 09:00:06;;;;;;;15.93;9.52;;;;;;;10.37;24.34;102135.91;4506355;31;34392;-64
2022/03/21 09:02:33;;;;;;;15.38;9.43;;;;;;;11.13;22.48;102130.06;4514865;31;34188;-65
2022/03/21 09:05:04;;;;;;;16.08;9.98;;;;;;;9.75;24.33;102126.22;4502349;31;34754;-64
2022/03/21 09:07:32;;;;;;;17.50;9.43;;;;;;;10.04;23.93;102130.84;4512046;31;34590;-65
2022/03/21 09:09:59;;;;;;;15.45;10.63;;;;;;;9.62;24.75;102120.59;4506065;31;34459;-66
2022/03/21 09:12:27;;;;;;;16.73;9.40;;;;;;;10.04;24.53;102128.13;4515354;31;33788;-64
2022/03/21 09:14:55;;;;;;;16.62;9.60;;;;;;;10.58;24.00;102124.25;4512275;31;34887;-66
2022/03/21 09:17:22;;;;;;;15.10;9.85;;;;;;;9.69;24.80;102115.25;4515392;31;34028;-66
2022/03/21 09:19:50;;;;;;;15.95;9.85;;;;;;;9.56;25.39;102115.91;4514450;31;33486;-65
2022/03/21 09:22:18;;;;;;;13.18;8.90;;;;;;;10.38;23.84;102113.12;4505956;31;33933;-67
2022/03/21 09:24:45;;;;;;;18.35;10.27;;;;;;;10.17;24.10;102121.16;4509533;31;34052;-68
2022/03/21 09:27:13;;;;;;;16.95;10.00;;;;;;;9.81;25.06;102111.91;4511690;31;33571;-67
2022/03/21 09:29:41;;;;;;;16.70;9.50;;;;;;;10.69;23.56;102109.34;4514395;31;34121;-67
2022/03/21 09:32:08;;;;;;;14.77;9.13;;;;;;;11.03;23.76;102110.53;4514749;31;33733;-69
2022/03/21 09:34:39;;;;;;;15.18;9.32;;;;;;;11.63;22.95;102111.03;4512171;31;35009;-70
2022/03/21 09:37:07;;;;;;;15.23;9.27;;;;;;;10.93;22.38;102107.28;4513675;31;34150;-67
2022/03/21 09:39:35;;;;;;;14.02;9.38;;;;;;;11.30;22.56;102103.47;4510098;31;34144;-64
2022/03/21 09:42:03;;;;;;;16.80;9.38;;;;;;;11.58;22.20;102105.38;4504695;31;34875;-64
2022/03/21 09:44:30;;;;;;;16.27;8.20;;;;;;;11.00;22.84;102106.31;4503934;31;34702;-67
2022/03/21 09:46:59;;;;;;;14.40;8.85;;;;;;;10.97;22.35;102104.00;4510933;31;34754;-64
2022/03/21 09:49:30;;;;;;;14.00;8.88;;;;;;;11.09;22.42;102104.31;4497163;31;33415;-65
2022/03/21 09:51:58;;;;;;;12.90;8.30;;;;;;;10.82;22.62;102095.03;4505082;31;33924;-66
2022/03/21 09:54:25;;;;;;;12.00;8.38;;;;;;;10.99;23.73;102101.94;4507865;31;34252;-65
2022/03/21 09:56:55;;;;;;;13.45;7.93;;;;;;;11.75;21.92;102087.72;4515497;31;33923;-65
2022/03/21 09:59:23;;;;;;;12.90;8.25;;;;;;;10.98;21.34;102094.81;4501949;31;34196;-67
2022/03/21 10:01:50;;;;;;;14.35;8.82;;;;;;;11.26;21.99;102102.19;4513958;31;33933;-65
2022/03/21 10:04:18;;;;;;;12.75;7.62;;;;;;;10.66;22.28;102098.84;4511167;31;34291;-65
2022/03/21 10:06:49;;;;;;;12.48;7.25;;;;;;;11.06;21.64;102097.41;4513222;31;33709;-65
2022/03/21 10:09:21;;;;;;;12.48;7.00;;;;;;;11.49;21.10;102089.19;4514146;31;33325;-65
2022/03/21 10:11:51;;;;;;;11.93;7.20;;;;;;;10.80;21.23;102092.53;4513983;31;33834;-65
2022/03/21 10:14:32;;;;;;;14.93;5.78;;;;;;;12.24;19.94;102085.91;4509426;31;35112;-65
2022/03/21 10:17:05;;;;;;;12.30;7.80;;;;;;;12.54;18.27;102083.72;4502721;31;33769;-64
2022/03/21 10:19:47;;;;;;;14.07;8.13;;;;;;;12.46;19.42;102076.59;4512047;31;33279;-65
2022/03/21 10:22:20;;;;;;;11.75;7.82;;;;;;;12.09;20.31;102065.13;4508906;31;33937;-65
2022/03/21 10:24:50;;;;;;;13.25;8.70;;;;;;;11.59;20.42;102069.81;4504214;31;35255;-65
2022/03/21 10:27:39;;;;;;;13.43;8.32;;;;;;;12.30;20.57;102063.31;4515451;31;34806;-66
2022/03/21 10:30:22;;;;;;;11.30;7.72;;;;;;;12.52;19.93;102064.03;4508099;31;33370;-65
2022/03/21 10:32:55;;;;;;;16.02;8.73;;;;;;;11.95;21.22;102065.25;4512471;31;34659;-65
2022/03/21 10:35:27;;;;;;;13.52;7.82;;;;;;;12.08;20.44;102062.59;4503339;31;35521;-65
2022/03/21 10:37:59;;;;;;;14.35;8.13;;;;;;;12.41;19.87;102060.00;4509987;31;33876;-65
2022/03/21 10:40:32;;;;;;;15.25;9.27;;;;;;;12.18;20.07;102049.47;4510066;31;34182;-65
2022/03/21 10:43:06;;;;;;;12.45;8.25;;;;;;;11.67;20.69;102047.91;4502739;31;33654;-65
2022/03/21 10:45:51;;;;;;;15.82;8.40;;;;;;;11.97;20.98;102044.13;4512441;31;35275;-65
2022/03/21 10:48:29;;;;;;;14.13;8.18;;;;;;;12.66;19.42;102046.69;4515611;31;34638;-66
2022/03/21 10:50:59;;;;;;;13.10;7.65;;;;;;;11.28;20.24;102037.59;4503269;31;33636;-65
2022/03/21 10:53:29;;;;;;;16.85;9.35;;;;;;;12.27;19.83;102023.75;4503144;31;34161;-65
2022/03/21 10:56:09;;;;;;;13.75;8.25;;;;;;;11.89;20.76;102036.97;4509353;31;33841;-66
2022/03/21 10:58:44;;;;;;;12.15;7.57;;;;;;;11.83;20.07;102029.56;4510020;31;33579;-69
2022/03/21 11:01:16;;;;;;;12.05;7.47;;;;;;;12.57;20.75;102030.72;4502246;31;33050;-70
2022/03/21 11:03:49;;;;;;;12.73;7.47;;;;;;;13.32;19.56;102023.25;4514400;31;34667;-70
2022/03/21 11:06:17;;;;;;;11.65;6.95;;;;;;;13.16;20.34;102026.41;4511264;31;33977;-71
2022/03/21 11:08:47;;;;;;;10.88;7.20;;;;;;;13.19;19.51;102015.91;4504055;31;33416;-67
2022/03/21 11:11:15;;;;;;;12.13;7.00;;;;;;;13.19;18.71;102017.78;4513172;31;33531;-66
2022/03/21 11:13:43;;;;;;;11.57;6.78;;;;;;;12.93;18.59;102020.28;4514253;31;34409;-66
2022/03/21 11:16:10;;;;;;;10.95;7.18;;;;;;;13.49;17.98;102007.28;4508137;31;33808;-65
2022/03/21 11:18:39;;;;;;;9.95;6.72;;;;;;;14.00;17.43;102006.53;4510146;31;34155;-65
2022/03/21 11:21:11;;;;;;;12.13;6.35;;;;;;;12.99;18.70;102010.47;4508507;31;33775;-67
2022/03/21 11:23:39;;;;;;;12.80;6.57;;;;;;;13.86;16.80;102010.34;4515678;31;34024;-66
2022/03/21 11:26:31;;;;;;;11.55;7.25;;;;;;;13.88;17.47;102000.06;4508195;31;34821;-65
2022/03/21 11:29:17;;;;;;;10.40;6.53;;;;;;;13.40;18.28;102003.13;4510768;31;34803;-65
2022/03/21 11:32:27;;;;;;;11.93;7.15;;;;;;;13.16;18.22;101994.53;4505189;31;34455;-65
2022/03/21 11:35:13;;;;;;;11.48;7.15;;;;;;;13.20;17.88;101984.03;4459864;31;33833;-68
2022/03/21 11:37:42;;;;;;;12.07;7.68;;;;;;;12.77;19.51;101976.31;4508358;31;33933;-70
2022/03/21 11:40:39;;;;;;;13.40;7.25;;;;;;;12.06;19.20;101981.16;4506803;31;34075;-70
2022/03/21 11:43:19;;;;;;;12.18;7.12;;;;;;;12.25;18.92;101982.28;4489256;31;34406;-68
2022/03/21 11:45:55;;;;;;;10.88;6.62;;;;;;;12.34;19.28;101985.66;4513398;31;34772;-68
2022/03/21 11:48:22;;;;;;;12.52;6.65;;;;;;;13.56;17.95;101977.28;4515124;31;33819;-68
2022/03/21 11:50:55;;;;;;;12.88;7.20;;;;;;;13.07;18.48;101974.81;4512272;31;34034;-65